Flight Track Log - Related Links

Times and Time Zones

All times are in EDT time to prevent confusion due to time zone crossing. See the SWA378 flight status page for this flight to view local times or setup timezone preferences in your user account.

Time Position Orientation Groundspeed Altitude Reporting Facility
EDT Latitude Longitude Course Direction KTS MPH feet Rate Location/Type
Tue 06:26:34 PM 33.6333 -84.4500 253° West 149 171 2,500  Level Atlanta TRACON
Tue 06:27:34 PM 33.6167 -84.5167 253° West 227 261 4,200 2,286 Climbing Atlanta TRACON
Tue 06:28:40 PM 33.5667 -84.5833 228° Southwest 282 325 7,300 2,703 Climbing Atlanta TRACON
Tue 06:30:00 PM 33.6189 -84.4668 62° Northeast  Level Estimated
Tue 06:30:56 PM 33.4556 -84.4522 62° Northeast 265 305 13,300  Level Atlanta Center
Tue 06:32:56 PM 33.4872 -84.2031 81° East 358 412 17,000 1,633 Climbing Atlanta Center
Tue 06:33:56 PM 33.5356 -84.0886 63° Northeast 363 418 18,200 1,950 Climbing Atlanta Center
Tue 06:34:56 PM 33.5856 -83.9714 63° Northeast 380 437 20,900 2,650 Climbing Atlanta Center
Tue 06:35:56 PM 33.6208 -83.8367 73° East 407 468 23,500 2,500 Climbing Atlanta Center
Tue 06:36:56 PM 33.6519 -83.6944 75° East 427 491 25,900 1,250 Climbing Atlanta Center
Tue 06:37:56 PM 33.6972 -83.5569 68° East 436 502 26,000 50 Climbing Atlanta Center
Tue 06:38:56 PM 33.7594 -83.4317 59° Northeast 436 502 26,000  Level Atlanta Center
Tue 06:39:56 PM 33.8253 -83.2911 61° Northeast 441 507 26,000 350 Level Atlanta Center
Tue 06:40:56 PM 33.8850 -83.1631 61° Northeast 436 502 26,700 1,200 Climbing Atlanta Center
Tue 06:41:56 PM 33.9528 -83.0319 58° Northeast 441 507 28,400 1,750 Climbing Atlanta Center
Tue 06:42:56 PM 34.0164 -82.8961 61° Northeast 449 517 30,200 1,900 Climbing Atlanta Center
Tue 06:43:56 PM 34.0839 -82.7597 59° Northeast 464 534 32,200 1,950 Climbing Atlanta Center
Tue 06:44:56 PM 34.1472 -82.6231 61° Northeast 469 540 34,100 1,900 Climbing Atlanta Center
Tue 06:45:56 PM 34.2103 -82.4914 60° Northeast 461 531 36,000 1,750 Climbing Atlanta Center
Tue 06:46:56 PM 34.2733 -82.3569 60° Northeast 461 531 37,600 1,450 Climbing Atlanta Center
Tue 06:47:56 PM 34.3381 -82.2225 60° Northeast 461 531 38,900 1,200 Climbing Atlanta Center
Tue 06:48:56 PM 34.3986 -82.0878 61° Northeast 461 531 40,000 1,050 Climbing Atlanta Center
Tue 06:49:56 PM 34.4592 -81.9553 61° Northeast 461 531 41,000 500 Climbing Atlanta Center
Tue 06:50:56 PM 34.5236 -81.8225 59° Northeast 455 524 41,000  Level Atlanta Center
Tue 06:51:56 PM 34.5878 -81.6847 60° Northeast 460 529 41,000  Level Atlanta Center
Tue 06:52:56 PM 34.6397 -81.5647 62° Northeast 454 522 41,000  Level Atlanta Center
Tue 06:53:56 PM 34.7036 -81.4261 61° Northeast 456 525 41,000  Level Atlanta Center
Tue 06:54:56 PM 34.7653 -81.2903 61° Northeast 456 525 41,000  Level Atlanta Center
Tue 06:55:56 PM 34.8289 -81.1542 60° Northeast 461 531 41,000  Level Atlanta Center
Tue 06:56:56 PM 34.8942 -81.0075 61° Northeast 461 531 41,000  Level Atlanta Center
Tue 06:57:56 PM 34.9575 -80.8658 61° Northeast 453 521 41,000  Level Atlanta Center
Tue 06:58:56 PM 35.0186 -80.7292 61° Northeast 461 531 41,000  Level Atlanta Center
Tue 06:59:56 PM 35.0775 -80.5997 61° Northeast 461 531 41,000 -551 Level Atlanta Center
Tue 07:02:12 PM 35.2053 -80.3100 62° Northeast 439 505 39,200 -870 Descending Washington Center
Tue 07:03:09 PM 35.2589 -80.1706 65° Northeast 450 518 38,200 -915 Descending Washington Center
Tue 07:04:10 PM 35.3058 -80.0283 68° East 450 518 37,400 -585 Descending Washington Center
Tue 07:05:12 PM 35.3489 -79.8828 70° East 445 512 37,000 -200 Descending Washington Center
Tue 07:06:10 PM 35.3914 -79.7375 70° East 445 512 37,000  Level Washington Center
Tue 07:07:11 PM 35.4361 -79.5892 70° East 445 512 37,000  Level Washington Center
Tue 07:08:11 PM 35.4806 -79.4436 69° East 445 512 37,000  Level Washington Center
Tue 07:09:09 PM 35.5297 -79.2800 70° East 460 529 37,000  Level Washington Center
Tue 07:10:11 PM 35.5739 -79.1289 70° East 460 529 37,000 -1,220 Level Washington Center
Tue 07:11:12 PM 35.6111 -78.9978 71° East 460 529 34,500 -3,227 Descending Washington Center
Tue 07:12:10 PM 35.6569 -78.8436 70° East 460 529 30,600 -2,797 Descending Washington Center
Tue 07:13:10 PM 35.7028 -78.6894 70° East 466 536 29,000 -793 Descending Washington Center
Tue 07:14:11 PM 35.7486 -78.5353 70° East 466 536 29,000 -246 Level Washington Center
Tue 07:15:12 PM 35.7897 -78.3806 72° East 466 536 28,500 -496 Descending Washington Center
Tue 07:16:12 PM 35.8308 -78.2308 71° East 466 536 28,000 -254 Descending Washington Center
Tue 07:17:10 PM 35.8758 -78.0758 70° East 461 531 28,000  Level Washington Center
Tue 07:18:10 PM 35.9164 -77.9258 71° East 461 531 28,000 -100 Level Washington Center
Tue 07:19:10 PM 35.9608 -77.7733 70° East 461 531 27,800 -1,934 Descending Washington Center
Tue 07:20:11 PM 36.0156 -77.6308 65° Northeast 461 531 24,100 -2,361 Descending Washington Center
Tue 07:21:12 PM 36.0825 -77.4889 60° Northeast 449 517 23,000 -559 Descending Washington Center
Tue 07:22:09 PM 36.1408 -77.3719 58° Northeast 436 502 23,000  Level Washington Center
Tue 07:23:10 PM 36.2011 -77.2342 62° Northeast 425 489 23,000 -344 Level Washington Center
Tue 07:24:11 PM 36.2569 -77.1169 59° Northeast 425 489 22,300 -2,190 Descending Washington Center
Tue 07:25:27 PM 36.3383 -76.9431 60° Northeast 426 490 18,000 -2,975 Descending Washington Center
Tue 07:26:10 PM 36.3767 -76.8689 57° Northeast 420 483 16,400 -2,754 Descending Washington Center
Tue 07:26:28 PM 36.4042 -76.8358 44° Northeast 389 448 15,200 -2,800 Descending Washington Center
Tue 07:27:10 PM 36.4464 -76.7744 49° Northeast 394 453 13,600 -2,097 Descending Washington Center
Tue 07:28:11 PM 36.5058 -76.6722 54° Northeast 373 429 11,600 -1,525 Descending Washington Center
Tue 07:29:12 PM 36.5464 -76.5589 66° East 359 413 10,500 -1,059 Descending Washington Center
Tue 07:29:36 PM 36.5636 -76.5047 68° East 319 367 10,100 -1,053 Descending Washington Center
Tue 07:30:09 PM 36.5847 -76.4611 59° Northeast 331 381 9,500 -735 Descending Washington Center
Tue 07:30:25 PM 36.6017 -76.4431 41° Northeast 278 320 9,500 -1,082 Level Washington Center
Tue 07:31:10 PM 36.6353 -76.3944 49° Northeast 288 331 8,400 -2,151 Descending Washington Center
Tue 07:32:11 PM 36.6900 -76.3431 37° Northeast 249 287 5,700 -2,450 Descending Washington Center
Tue 07:33:10 PM 36.7547 -76.3022 27° Northeast 249 287 3,500 -1,966 Descending Washington Center
Tue 07:34:10 PM 36.8156 -76.2742 20° North 244 281 1,800 -1,273 Descending Washington Center
Tue 07:35:22 PM 36.8658 -76.2331 33° Northeast 142 163 700 -917 Descending Washington Center

Login

Don't have an account? Register now (free) for customized features, flight alerts, and more!